createdAt,value
2018-07-19T00:01:35.264Z,1.03
2018-07-19T00:04:04.139Z,1.07
2018-07-19T00:06:33.418Z,1.20
2018-07-19T00:09:02.568Z,1.03
2018-07-19T00:11:31.876Z,1.13
2018-07-19T00:14:01.155Z,1.20
2018-07-19T00:16:30.388Z,1.07
2018-07-19T00:18:59.822Z,1.20
2018-07-19T00:21:29.152Z,1.13
2018-07-19T00:23:58.787Z,1.10
2018-07-19T00:26:27.954Z,1.43
2018-07-19T00:28:57.571Z,0.90
2018-07-19T00:31:26.812Z,1.30
2018-07-19T00:33:56.174Z,1.60
2018-07-19T00:36:25.394Z,1.37
2018-07-19T00:38:54.545Z,1.10
2018-07-19T00:41:23.681Z,1.20
2018-07-19T00:43:52.883Z,1.13
2018-07-19T00:46:21.893Z,1.50
2018-07-19T00:48:50.856Z,1.03
2018-07-19T00:51:19.986Z,1.30
2018-07-19T00:53:49.382Z,1.17
2018-07-19T00:56:18.589Z,1.33
2018-07-19T00:58:47.778Z,1.13
2018-07-19T01:01:24.144Z,1.30
2018-07-19T01:03:53.550Z,1.30
2018-07-19T01:06:22.566Z,1.23
2018-07-19T01:08:51.559Z,1.20
2018-07-19T01:11:20.404Z,1.10
2018-07-19T01:13:49.356Z,1.20
2018-07-19T01:16:18.710Z,1.20
2018-07-19T01:18:47.814Z,1.40
2018-07-19T01:21:16.924Z,1.40
2018-07-19T01:23:45.911Z,1.30
2018-07-19T01:26:17.171Z,1.40
2018-07-19T01:28:46.351Z,1.40
2018-07-19T01:31:15.604Z,1.30
2018-07-19T01:33:44.836Z,1.33
2018-07-19T01:36:14.030Z,1.50
2018-07-19T01:38:43.292Z,1.40
2018-07-19T01:41:24.311Z,1.60
2018-07-19T01:43:53.335Z,1.20
2018-07-19T01:46:22.399Z,1.63
2018-07-19T01:48:51.391Z,1.60
2018-07-19T01:51:20.564Z,1.50
2018-07-19T01:53:49.271Z,1.30
2018-07-19T01:56:18.301Z,1.40
2018-07-19T01:58:47.693Z,1.10
2018-07-19T02:01:16.871Z,1.50
2018-07-19T02:03:46.070Z,1.50
2018-07-19T02:06:15.381Z,1.40
2018-07-19T02:08:44.334Z,1.40
2018-07-19T02:11:13.465Z,1.50
2018-07-19T02:13:42.457Z,1.23
2018-07-19T02:16:12.039Z,1.30
2018-07-19T02:18:40.934Z,1.27
2018-07-19T02:21:09.916Z,1.30
2018-07-19T02:23:39.348Z,1.30
2018-07-19T02:26:09.493Z,1.53
2018-07-19T02:28:38.524Z,1.47
2018-07-19T02:34:09.216Z,1.50
2018-07-19T02:36:37.624Z,1.40
2018-07-19T02:39:10.700Z,1.33
2018-07-19T02:41:39.472Z,1.60
2018-07-19T02:44:09.274Z,1.63
2018-07-19T02:46:38.892Z,1.63
2018-07-19T02:49:07.692Z,1.47
2018-07-19T02:51:36.215Z,1.43
2018-07-19T02:54:04.765Z,1.30
2018-07-19T02:56:33.218Z,1.40
2018-07-19T02:59:01.696Z,1.67
2018-07-19T03:01:30.164Z,1.57
2018-07-19T03:03:58.784Z,1.70
2018-07-19T03:06:28.351Z,1.73
2018-07-19T03:08:56.973Z,1.53
2018-07-19T03:11:25.503Z,1.63
2018-07-19T03:13:54.084Z,1.53
2018-07-19T03:16:22.631Z,1.60
2018-07-19T03:18:51.117Z,1.70
2018-07-19T03:21:19.685Z,1.60
2018-07-19T03:23:48.168Z,1.60
2018-07-19T03:26:16.647Z,1.87
2018-07-19T03:28:45.110Z,1.40
2018-07-19T03:31:14.063Z,1.80
2018-07-19T03:33:49.441Z,1.53
2018-07-19T03:36:17.796Z,1.80
2018-07-19T03:38:46.172Z,1.73
2018-07-19T03:41:14.645Z,1.73
2018-07-19T03:43:43.273Z,1.73
2018-07-19T03:46:11.856Z,2.10
2018-07-19T03:48:40.406Z,2.13
2018-07-19T03:51:08.963Z,2.03
2018-07-19T03:53:37.505Z,2.47
2018-07-19T03:56:06.182Z,2.43
2018-07-19T03:58:34.976Z,2.17
2018-07-19T04:01:03.384Z,2.43
2018-07-19T04:03:31.861Z,2.23
2018-07-19T04:06:00.311Z,2.10
2018-07-19T04:08:28.800Z,2.80
2018-07-19T04:10:57.490Z,2.60
2018-07-19T04:13:25.980Z,2.53
2018-07-19T04:15:54.578Z,2.73
2018-07-19T04:18:23.315Z,2.80
2018-07-19T04:20:51.898Z,3.10
2018-07-19T04:23:20.441Z,2.60
2018-07-19T04:25:48.982Z,2.20
2018-07-19T04:28:17.585Z,2.23
2018-07-19T04:30:46.061Z,2.47
2018-07-19T04:33:14.742Z,2.40
2018-07-19T04:35:43.210Z,2.57
2018-07-19T04:38:11.705Z,2.23
2018-07-19T04:40:40.204Z,2.23
2018-07-19T04:43:08.720Z,2.00
2018-07-19T04:45:37.333Z,2.03
2018-07-19T04:48:05.855Z,1.97
2018-07-19T04:50:34.313Z,2.10
2018-07-19T04:53:02.881Z,2.50
2018-07-19T04:55:31.417Z,2.33
2018-07-19T04:57:59.484Z,2.47
2018-07-19T05:00:27.885Z,2.10
2018-07-19T05:02:56.358Z,2.33
2018-07-19T05:05:24.480Z,2.23
2018-07-19T05:07:52.806Z,1.80
2018-07-19T05:10:21.457Z,1.90
2018-07-19T05:12:50.061Z,2.23
2018-07-19T05:15:18.476Z,6.33
2018-07-19T05:17:47.072Z,3.10
2018-07-19T05:20:16.053Z,2.10
2018-07-19T05:22:44.512Z,2.00
2018-07-19T05:25:12.589Z,1.93
2018-07-19T05:27:40.965Z,2.13
2018-07-19T05:30:09.607Z,1.67
2018-07-19T05:32:38.030Z,1.93
2018-07-19T05:35:06.542Z,1.90
2018-07-19T05:37:35.125Z,1.80
2018-07-19T05:40:03.685Z,2.10
2018-07-19T05:42:32.172Z,2.30
2018-07-19T05:45:00.688Z,1.87
2018-07-19T05:47:29.192Z,2.93
2018-07-19T05:49:57.744Z,1.87
2018-07-19T05:52:26.309Z,1.90
2018-07-19T05:54:54.777Z,2.00
2018-07-19T05:57:23.300Z,2.53
2018-07-19T05:59:52.685Z,2.07
2018-07-19T06:02:21.251Z,3.93
2018-07-19T06:04:49.580Z,3.17
2018-07-19T06:07:17.968Z,5.27
2018-07-19T06:09:46.469Z,7.93
2018-07-19T06:12:14.929Z,3.13
2018-07-19T06:14:43.633Z,3.00
2018-07-19T06:17:12.197Z,3.20
2018-07-19T06:19:41.751Z,3.03
2018-07-19T06:22:10.329Z,4.80
2018-07-19T06:24:38.905Z,3.03
2018-07-19T06:27:07.472Z,2.53
2018-07-19T06:29:35.988Z,2.97
2018-07-19T06:32:04.514Z,2.20
2018-07-19T06:34:33.014Z,2.53
2018-07-19T06:37:01.502Z,2.13
2018-07-19T06:39:29.969Z,2.30
2018-07-19T06:41:58.581Z,2.07
2018-07-19T06:44:27.777Z,2.23
2018-07-19T06:46:56.381Z,2.50
2018-07-19T06:49:25.564Z,1.70
2018-07-19T06:51:53.953Z,2.53
2018-07-19T06:54:22.605Z,1.90
2018-07-19T06:56:51.057Z,2.03
2018-07-19T06:59:19.659Z,2.17
2018-07-19T07:01:48.133Z,1.83
2018-07-19T07:04:16.581Z,1.87
2018-07-19T07:06:45.188Z,2.80
2018-07-19T07:09:13.809Z,1.97
2018-07-19T07:11:42.269Z,1.60
2018-07-19T07:14:10.810Z,1.40
2018-07-19T07:16:39.292Z,1.50
2018-07-19T07:19:07.764Z,1.33
2018-07-19T07:21:36.231Z,1.33
2018-07-19T07:24:04.810Z,1.40
2018-07-19T07:26:33.364Z,1.10
2018-07-19T07:29:01.830Z,1.20
2018-07-19T07:31:30.548Z,1.10
2018-07-19T07:33:59.151Z,1.20
2018-07-19T07:36:27.732Z,1.40
2018-07-19T07:38:56.224Z,1.30
2018-07-19T07:41:24.801Z,1.85
2018-07-19T07:43:53.305Z,1.52
2018-07-19T07:46:21.761Z,1.52
2018-07-19T07:48:50.212Z,1.70
2018-07-19T07:51:18.688Z,1.90
2018-07-19T07:53:47.275Z,1.42
2018-07-19T07:56:15.763Z,2.02
2018-07-19T07:58:44.314Z,1.40
2018-07-19T08:01:12.814Z,1.20
2018-07-19T08:03:41.268Z,2.15
2018-07-19T08:06:09.724Z,1.50
2018-07-19T08:08:38.260Z,1.60
2018-07-19T08:11:06.856Z,1.17
2018-07-19T08:13:35.460Z,1.42
2018-07-19T08:16:03.574Z,1.20
2018-07-19T08:18:31.952Z,1.32
2018-07-19T08:21:00.560Z,1.35
2018-07-19T08:23:29.161Z,2.37
2018-07-19T08:25:57.669Z,1.82
2018-07-19T08:28:26.137Z,1.07
2018-07-19T08:30:54.556Z,1.20
2018-07-19T08:33:22.665Z,1.27
2018-07-19T08:35:51.124Z,1.17
2018-07-19T08:38:19.621Z,1.90
2018-07-19T08:40:48.048Z,1.70
2018-07-19T08:43:16.517Z,1.87
2018-07-19T08:45:45.066Z,1.92
2018-07-19T08:48:13.695Z,1.15
2018-07-19T08:50:42.253Z,1.50
2018-07-19T08:53:10.691Z,2.00
2018-07-19T08:55:39.464Z,1.27
2018-07-19T08:58:07.905Z,1.47
2018-07-19T09:00:36.570Z,1.40
2018-07-19T09:03:05.158Z,1.37
2018-07-19T09:05:33.577Z,1.40
2018-07-19T09:08:02.053Z,1.37
2018-07-19T09:10:30.720Z,1.35
2018-07-19T09:12:59.194Z,1.20
2018-07-19T09:15:27.661Z,1.70
2018-07-19T09:17:56.197Z,1.30
2018-07-19T09:20:24.689Z,1.45
2018-07-19T09:22:53.217Z,1.60
2018-07-19T09:25:22.486Z,1.10
2018-07-19T09:27:50.982Z,1.52
2018-07-19T09:30:19.584Z,1.72
2018-07-19T09:32:48.079Z,1.30
2018-07-19T09:35:17.647Z,1.42
2018-07-19T09:37:46.244Z,1.55
2018-07-19T09:40:15.860Z,1.75
2018-07-19T09:42:44.497Z,1.40
2018-07-19T09:45:12.945Z,1.30
2018-07-19T09:47:41.405Z,1.07
2018-07-19T09:50:10.144Z,1.80
2018-07-19T09:52:38.721Z,1.27
2018-07-19T09:55:07.144Z,1.30
2018-07-19T09:57:35.645Z,1.52
2018-07-19T10:00:04.181Z,2.72
2018-07-19T10:02:32.787Z,1.67
2018-07-19T10:05:01.319Z,2.77
2018-07-19T10:07:29.756Z,1.60
2018-07-19T10:09:58.242Z,1.60
2018-07-19T10:12:26.750Z,1.55
2018-07-19T10:14:55.209Z,1.47
2018-07-19T10:17:23.782Z,1.90
2018-07-19T10:19:52.245Z,1.35
2018-07-19T10:22:20.784Z,1.72
2018-07-19T10:24:49.397Z,1.32
2018-07-19T10:27:18.026Z,1.20
2018-07-19T10:29:46.681Z,1.50
2018-07-19T10:32:15.189Z,1.10
2018-07-19T10:34:43.518Z,1.70
2018-07-19T10:37:12.101Z,1.60
2018-07-19T10:39:40.584Z,1.37
2018-07-19T10:42:10.185Z,1.40
2018-07-19T10:44:38.721Z,1.37
2018-07-19T10:47:07.320Z,1.40
2018-07-19T10:49:35.817Z,1.62
2018-07-19T10:52:04.413Z,1.50
2018-07-19T10:54:32.841Z,1.50
2018-07-19T10:57:01.293Z,1.10
2018-07-19T10:59:29.793Z,1.50
2018-07-19T11:01:58.226Z,1.50
2018-07-19T11:04:27.069Z,1.10
2018-07-19T11:06:55.534Z,1.77
2018-07-19T11:09:23.981Z,1.82
2018-07-19T11:11:52.448Z,1.30
2018-07-19T11:14:20.971Z,1.17
2018-07-19T11:16:49.096Z,1.10
2018-07-19T11:19:17.452Z,2.35
2018-07-19T11:21:45.891Z,1.87
2018-07-19T11:24:14.568Z,1.62
2018-07-19T11:26:43.076Z,1.40
2018-07-19T11:29:11.707Z,1.37
2018-07-19T11:31:40.240Z,1.47
2018-07-19T11:34:08.701Z,1.35
2018-07-19T11:36:36.753Z,1.55
2018-07-19T11:39:08.459Z,1.70
2018-07-19T11:41:37.385Z,1.95
2018-07-19T11:44:06.736Z,1.70
2018-07-19T11:46:35.188Z,2.62
2018-07-19T11:49:03.717Z,2.08
2018-07-19T11:51:32.456Z,2.60
2018-07-19T11:54:00.867Z,1.45
2018-07-19T11:56:29.294Z,2.37
2018-07-19T11:58:57.844Z,1.65
2018-07-19T12:01:26.416Z,2.15
2018-07-19T12:03:54.971Z,2.25
2018-07-19T12:06:23.453Z,3.20
2018-07-19T12:08:51.901Z,1.60
2018-07-19T12:11:20.517Z,2.45
2018-07-19T12:13:49.241Z,2.60
2018-07-19T12:16:17.793Z,3.20
2018-07-19T12:18:46.405Z,2.72
2018-07-19T12:21:14.967Z,2.70
2018-07-19T12:23:43.323Z,2.25
2018-07-19T12:26:11.867Z,3.12
2018-07-19T12:28:40.435Z,1.82
2018-07-19T12:31:08.938Z,1.77
2018-07-19T12:33:37.415Z,3.35
2018-07-19T12:36:06.047Z,1.50
2018-07-19T12:38:34.501Z,1.80
2018-07-19T12:41:03.070Z,1.70
2018-07-19T12:43:31.583Z,1.62
2018-07-19T12:46:00.109Z,1.77
2018-07-19T12:48:28.524Z,1.65
2018-07-19T12:50:57.021Z,2.17
2018-07-19T12:53:25.555Z,2.20
2018-07-19T12:55:54.248Z,2.20
2018-07-19T12:58:22.693Z,2.35
2018-07-19T13:00:51.157Z,2.92
2018-07-19T13:03:19.678Z,1.52
2018-07-19T13:05:48.141Z,1.85
2018-07-19T13:08:16.653Z,1.50
2018-07-19T13:10:45.049Z,1.50
2018-07-19T13:13:13.499Z,2.20
2018-07-19T13:15:42.861Z,1.80
2018-07-19T13:18:11.259Z,1.80
2018-07-19T13:20:39.839Z,1.60
2018-07-19T13:23:08.323Z,1.70
2018-07-19T13:25:37.161Z,2.02
2018-07-19T13:28:05.881Z,2.15
2018-07-19T13:30:34.505Z,2.35
2018-07-19T13:33:02.933Z,1.75
2018-07-19T13:35:31.491Z,1.60
2018-07-19T13:37:59.568Z,1.55
2018-07-19T13:40:27.926Z,2.27
2018-07-19T13:42:56.397Z,1.60
2018-07-19T13:45:25.196Z,1.70
2018-07-19T13:47:53.648Z,1.50
2018-07-19T13:50:22.167Z,1.62
2018-07-19T13:53:01.953Z,2.50
2018-07-19T13:55:30.406Z,2.62
2018-07-19T13:57:58.605Z,1.60
2018-07-19T14:00:26.518Z,1.60
2018-07-19T14:02:54.786Z,1.50
2018-07-19T14:05:23.128Z,1.60
2018-07-19T14:07:51.413Z,1.60
2018-07-19T14:10:19.909Z,2.10
2018-07-19T14:12:48.438Z,1.82
2018-07-19T14:15:16.593Z,2.10
2018-07-19T14:17:45.480Z,1.90
2018-07-19T14:20:14.014Z,1.55
2018-07-19T14:22:42.489Z,1.77
2018-07-19T14:25:11.785Z,1.30
2018-07-19T14:27:40.350Z,1.45
2018-07-19T14:30:09.961Z,1.40
2018-07-19T14:32:38.460Z,1.77
2018-07-19T14:35:07.011Z,1.80
2018-07-19T14:37:35.464Z,2.00
2018-07-19T14:40:03.973Z,1.60
2018-07-19T14:42:32.483Z,1.85
2018-07-19T14:45:00.985Z,2.05
2018-07-19T14:47:29.969Z,2.60
2018-07-19T14:49:58.521Z,2.02
2018-07-19T14:52:27.144Z,1.60
2018-07-19T14:54:55.747Z,2.25
2018-07-19T14:57:24.268Z,1.60
2018-07-19T14:59:52.673Z,2.80
2018-07-19T15:02:21.149Z,1.98
2018-07-19T15:04:49.629Z,2.15
2018-07-19T15:07:18.065Z,1.98
2018-07-19T15:09:46.558Z,2.12
2018-07-19T15:12:14.996Z,2.40
2018-07-19T15:14:43.429Z,1.80
2018-07-19T15:17:12.126Z,2.10
2018-07-19T15:19:40.573Z,2.27
2018-07-19T15:22:09.082Z,2.60
2018-07-19T15:24:37.517Z,2.40
2018-07-19T15:27:06.005Z,1.90
2018-07-19T15:29:34.833Z,2.50
2018-07-19T15:32:03.377Z,1.75
2018-07-19T15:34:31.930Z,2.00
2018-07-19T15:37:00.927Z,2.87
2018-07-19T15:39:29.445Z,2.20
2018-07-19T15:41:57.917Z,2.25
2018-07-19T15:44:26.099Z,1.80
2018-07-19T15:46:54.721Z,1.98
2018-07-19T15:49:23.201Z,2.22
2018-07-19T15:51:51.673Z,2.40
2018-07-19T15:54:20.109Z,2.20
2018-07-19T15:56:48.616Z,2.25
2018-07-19T15:59:17.145Z,2.30
2018-07-19T16:01:45.673Z,1.90
2018-07-19T16:04:14.174Z,1.95
2018-07-19T16:06:42.757Z,1.60
2018-07-19T16:09:12.519Z,2.15
2018-07-19T16:11:41.969Z,2.00
2018-07-19T16:14:11.661Z,1.70
2018-07-19T16:16:41.501Z,2.05
2018-07-19T16:19:10.037Z,1.87
2018-07-19T16:21:38.849Z,1.80
2018-07-19T16:24:07.490Z,1.40
2018-07-19T16:26:35.977Z,2.42
2018-07-19T16:29:04.762Z,1.60
2018-07-19T16:31:33.439Z,1.50
2018-07-19T16:34:02.174Z,1.75
2018-07-19T16:36:30.733Z,1.90
2018-07-19T16:38:59.223Z,2.00
2018-07-19T16:41:27.682Z,1.77
2018-07-19T16:43:56.302Z,2.12
2018-07-19T16:46:25.104Z,1.95
2018-07-19T16:48:53.553Z,1.85
2018-07-19T16:51:23.295Z,2.20
2018-07-19T16:53:53.111Z,2.00
2018-07-19T16:56:21.562Z,1.80
2018-07-19T16:58:50.199Z,1.80
2018-07-19T17:01:19.813Z,1.47
2018-07-19T17:03:48.273Z,1.60
2018-07-19T17:06:16.753Z,1.92
2018-07-19T17:08:45.166Z,1.87
2018-07-19T17:11:13.662Z,1.67
2018-07-19T17:13:42.233Z,1.60
2018-07-19T17:16:10.715Z,1.57
2018-07-19T17:18:39.201Z,3.02
2018-07-19T17:21:07.727Z,2.05
2018-07-19T17:23:36.157Z,1.77
2018-07-19T17:26:04.701Z,2.02
2018-07-19T17:28:33.197Z,1.60
2018-07-19T17:31:03.817Z,1.40
2018-07-19T17:33:32.410Z,1.60
2018-07-19T17:36:06.365Z,2.00
2018-07-19T17:38:34.872Z,1.98
2018-07-19T17:41:03.643Z,1.40
2018-07-19T17:43:32.740Z,1.60
2018-07-19T17:46:02.538Z,1.80
2018-07-19T17:53:36.710Z,1.50
2018-07-19T18:14:46.208Z,1.62
2018-07-19T18:17:25.389Z,1.75
2018-07-19T18:20:24.946Z,1.57
2018-07-19T18:27:52.291Z,1.80
2018-07-19T18:30:22.915Z,1.52
2018-07-19T18:32:51.872Z,1.65
2018-07-19T18:35:20.469Z,2.20
2018-07-19T18:37:49.295Z,1.87
2018-07-19T18:40:24.219Z,1.92
2018-07-19T18:42:52.998Z,1.87
2018-07-19T18:45:22.850Z,1.80
2018-07-19T18:47:51.497Z,1.53
2018-07-19T18:50:20.326Z,1.87
2018-07-19T18:52:49.481Z,1.67
2018-07-19T18:55:18.305Z,1.40
2018-07-19T18:57:47.131Z,1.43
2018-07-19T19:00:16.003Z,2.23
2018-07-19T19:02:44.517Z,1.50
2018-07-19T19:05:13.009Z,1.73
2018-07-19T19:07:41.723Z,1.63
2018-07-19T19:10:10.378Z,1.40
2018-07-19T19:12:39.312Z,1.40
2018-07-19T19:15:08.066Z,1.40
2018-07-19T19:17:36.497Z,2.40
2018-07-19T19:20:05.433Z,1.60
2018-07-19T19:22:33.765Z,1.57
2018-07-19T19:25:02.190Z,1.50
2018-07-19T19:27:30.661Z,1.57
2018-07-19T19:29:59.127Z,1.53
2018-07-19T19:32:27.657Z,1.70
2018-07-19T19:34:56.221Z,1.57
2018-07-19T19:37:24.691Z,1.40
2018-07-19T19:39:53.293Z,1.77
2018-07-19T19:42:21.758Z,1.47
2018-07-19T19:44:50.254Z,2.50
2018-07-19T19:47:18.737Z,1.60
2018-07-19T19:49:47.291Z,1.50
2018-07-19T19:52:16.229Z,1.70
2018-07-19T19:54:45.226Z,1.80
2018-07-19T19:57:13.810Z,1.73
2018-07-19T19:59:42.611Z,1.23
2018-07-19T20:02:11.289Z,1.60
2018-07-19T20:04:39.922Z,1.53
2018-07-19T20:07:08.632Z,2.37
2018-07-19T20:09:37.701Z,1.30
2018-07-19T20:12:06.483Z,1.60
2018-07-19T20:14:34.989Z,1.73
2018-07-19T20:17:03.496Z,1.43
2018-07-19T20:19:32.130Z,1.30
2018-07-19T20:22:00.702Z,1.30
2018-07-19T20:24:29.330Z,1.70
2018-07-19T20:26:57.956Z,1.40
2018-07-19T20:29:26.616Z,1.60
2018-07-19T20:31:55.126Z,1.30
2018-07-19T20:34:23.874Z,1.30
2018-07-19T20:36:52.617Z,1.40
2018-07-19T20:39:21.145Z,1.50
2018-07-19T20:41:50.768Z,1.57
2018-07-19T20:44:19.349Z,1.60
2018-07-19T20:46:48.044Z,1.70
2018-07-19T20:49:16.606Z,1.40
2018-07-19T20:51:45.145Z,1.50
2018-07-19T20:54:14.097Z,1.40
2018-07-19T20:56:42.793Z,1.40
2018-07-19T20:59:11.881Z,1.47
2018-07-19T21:01:40.527Z,1.40
2018-07-19T21:04:09.818Z,1.67
2018-07-19T21:06:38.730Z,1.60
2018-07-19T21:09:09.737Z,1.23
2018-07-19T21:11:38.327Z,1.47
2018-07-19T21:14:06.876Z,1.27
2018-07-19T21:16:38.892Z,1.33
2018-07-19T21:19:07.393Z,1.37
2018-07-19T21:21:37.040Z,1.30
2018-07-19T21:24:05.661Z,1.30
2018-07-19T21:26:34.307Z,1.30
2018-07-19T21:29:02.840Z,1.43
2018-07-19T21:31:32.567Z,1.07
2018-07-19T21:34:01.034Z,1.30
2018-07-19T21:36:29.513Z,1.30
2018-07-19T21:38:58.262Z,1.10
2018-07-19T21:41:27.844Z,1.60
2018-07-19T21:43:56.589Z,1.40
2018-07-19T21:46:25.181Z,1.20
2018-07-19T21:48:53.445Z,1.50
2018-07-19T21:51:22.229Z,1.13
2018-07-19T21:53:50.773Z,1.40
2018-07-19T21:56:19.307Z,1.83
2018-07-19T21:58:47.850Z,1.60
2018-07-19T22:01:16.140Z,1.53
2018-07-19T22:03:44.581Z,1.23
2018-07-19T22:06:13.033Z,1.20
2018-07-19T22:08:41.608Z,1.10
2018-07-19T22:11:10.218Z,1.10
2018-07-19T22:13:38.629Z,1.03
2018-07-19T22:16:07.113Z,1.57
2018-07-19T22:18:36.771Z,1.43
2018-07-19T22:21:05.289Z,1.60
2018-07-19T22:23:33.763Z,1.23
2018-07-19T22:26:02.299Z,1.50
2018-07-19T22:28:30.822Z,1.10
2018-07-19T22:30:59.381Z,1.00
2018-07-19T22:33:27.768Z,1.30
2018-07-19T22:35:56.177Z,1.10
2018-07-19T22:38:24.678Z,1.13
2018-07-19T22:40:53.216Z,1.50
2018-07-19T22:43:21.785Z,0.90
2018-07-19T22:45:50.307Z,1.23
2018-07-19T22:48:18.888Z,1.30
2018-07-19T22:50:47.351Z,1.00
2018-07-19T22:53:16.245Z,1.47
2018-07-19T22:55:44.681Z,1.10
2018-07-19T22:58:13.243Z,1.20
2018-07-19T23:00:41.713Z,0.80
2018-07-19T23:03:10.229Z,1.00
2018-07-19T23:05:38.705Z,1.10
2018-07-19T23:08:07.310Z,1.20
2018-07-19T23:10:35.877Z,1.10
2018-07-19T23:13:04.396Z,0.93
2018-07-19T23:15:33.101Z,1.00
2018-07-19T23:18:01.450Z,0.97
2018-07-19T23:20:30.034Z,0.97
2018-07-19T23:22:59.637Z,1.17
2018-07-19T23:25:28.173Z,1.27
2018-07-19T23:27:57.362Z,1.13
2018-07-19T23:30:28.345Z,1.07
2018-07-19T23:32:56.989Z,1.07
2018-07-19T23:35:29.833Z,0.90
2018-07-19T23:38:00.188Z,1.33
2018-07-19T23:40:31.460Z,1.47
2018-07-19T23:43:10.073Z,0.93
2018-07-19T23:45:47.404Z,1.40
2018-07-19T23:48:15.821Z,1.50
2018-07-19T23:50:44.381Z,1.23
2018-07-19T23:53:12.907Z,1.10
2018-07-19T23:55:41.381Z,1.00
2018-07-19T23:58:13.015Z,1.10
